sensor_id;sensor_type;location;lat;lon;timestamp;temperature;humidity
20498;DHT22;10407;53.238;10.448;2023-05-29T00:01:57;13.80;99.90
20498;DHT22;10407;53.238;10.448;2023-05-29T00:04:25;13.90;99.90
20498;DHT22;10407;53.238;10.448;2023-05-29T00:06:52;13.90;99.90
20498;DHT22;10407;53.238;10.448;2023-05-29T00:09:20;13.90;99.90
20498;DHT22;10407;53.238;10.448;2023-05-29T00:11:47;13.80;99.90
20498;DHT22;10407;53.238;10.448;2023-05-29T00:14:17;13.90;99.90
20498;DHT22;10407;53.238;10.448;2023-05-29T00:16:46;13.60;99.90
20498;DHT22;10407;53.238;10.448;2023-05-29T00:19:15;13.60;99.90
20498;DHT22;10407;53.238;10.448;2023-05-29T00:21:50;13.50;99.90
20498;DHT22;10407;53.238;10.448;2023-05-29T00:24:17;13.50;99.90
20498;DHT22;10407;53.238;10.448;2023-05-29T00:26:46;13.70;99.90
20498;DHT22;10407;53.238;10.448;2023-05-29T00:29:14;13.40;99.90
20498;DHT22;10407;53.238;10.448;2023-05-29T00:31:41;13.40;99.90
20498;DHT22;10407;53.238;10.448;2023-05-29T00:34:09;13.40;99.90
20498;DHT22;10407;53.238;10.448;2023-05-29T00:36:36;13.40;99.90
20498;DHT22;10407;53.238;10.448;2023-05-29T00:39:04;13.30;99.90
20498;DHT22;10407;53.238;10.448;2023-05-29T00:41:32;13.40;99.90
20498;DHT22;10407;53.238;10.448;2023-05-29T00:44:00;13.10;99.90
20498;DHT22;10407;53.238;10.448;2023-05-29T00:46:27;13.20;99.90
20498;DHT22;10407;53.238;10.448;2023-05-29T00:48:55;13.30;99.90
20498;DHT22;10407;53.238;10.448;2023-05-29T00:51:24;13.30;99.90
20498;DHT22;10407;53.238;10.448;2023-05-29T00:53:53;13.10;99.90
20498;DHT22;10407;53.238;10.448;2023-05-29T00:56:21;13.20;99.90
20498;DHT22;10407;53.238;10.448;2023-05-29T00:58:51;13.10;99.90
20498;DHT22;10407;53.238;10.448;2023-05-29T01:01:19;13.20;99.90
20498;DHT22;10407;53.238;10.448;2023-05-29T01:03:48;13.20;99.90
20498;DHT22;10407;53.238;10.448;2023-05-29T01:06:15;13.10;99.90
20498;DHT22;10407;53.238;10.448;2023-05-29T01:08:43;13.30;99.90
20498;DHT22;10407;53.238;10.448;2023-05-29T01:11:30;13.60;99.90
20498;DHT22;10407;53.238;10.448;2023-05-29T01:13:57;13.70;99.90
20498;DHT22;10407;53.238;10.448;2023-05-29T01:16:38;13.50;99.90
20498;DHT22;10407;53.238;10.448;2023-05-29T01:24:38;13.70;99.90
20498;DHT22;10407;53.238;10.448;2023-05-29T01:27:09;13.70;99.90
20498;DHT22;10407;53.238;10.448;2023-05-29T01:29:39;13.60;99.90
20498;DHT22;10407;53.238;10.448;2023-05-29T01:32:07;13.60;99.90
20498;DHT22;10407;53.238;10.448;2023-05-29T01:34:35;13.60;99.90
20498;DHT22;10407;53.238;10.448;2023-05-29T01:37:03;13.80;99.90
20498;DHT22;10407;53.238;10.448;2023-05-29T01:39:32;13.60;99.90
20498;DHT22;10407;53.238;10.448;2023-05-29T01:42:01;13.30;99.90
20498;DHT22;10407;53.238;10.448;2023-05-29T01:44:29;13.40;99.90
20498;DHT22;10407;53.238;10.448;2023-05-29T01:46:58;13.50;99.90
20498;DHT22;10407;53.238;10.448;2023-05-29T01:49:26;13.60;99.90
20498;DHT22;10407;53.238;10.448;2023-05-29T01:51:55;13.50;99.90
20498;DHT22;10407;53.238;10.448;2023-05-29T01:54:23;13.30;99.90
20498;DHT22;10407;53.238;10.448;2023-05-29T01:56:51;13.40;99.90
20498;DHT22;10407;53.238;10.448;2023-05-29T01:59:19;13.40;99.90
20498;DHT22;10407;53.238;10.448;2023-05-29T02:01:48;13.30;99.90
20498;DHT22;10407;53.238;10.448;2023-05-29T02:04:16;13.20;99.90
20498;DHT22;10407;53.238;10.448;2023-05-29T02:06:43;13.20;99.90
20498;DHT22;10407;53.238;10.448;2023-05-29T02:09:11;13.10;99.90
20498;DHT22;10407;53.238;10.448;2023-05-29T02:11:38;13.10;99.90
20498;DHT22;10407;53.238;10.448;2023-05-29T02:14:07;13.10;99.90
20498;DHT22;10407;53.238;10.448;2023-05-29T02:16:35;13.20;99.90
20498;DHT22;10407;53.238;10.448;2023-05-29T02:19:02;13.10;99.90
20498;DHT22;10407;53.238;10.448;2023-05-29T02:21:30;13.00;99.90
20498;DHT22;10407;53.238;10.448;2023-05-29T02:23:58;12.90;99.90
20498;DHT22;10407;53.238;10.448;2023-05-29T02:26:25;12.80;99.90
20498;DHT22;10407;53.238;10.448;2023-05-29T02:28:53;12.70;99.90
20498;DHT22;10407;53.238;10.448;2023-05-29T02:31:20;12.60;99.90
20498;DHT22;10407;53.238;10.448;2023-05-29T02:33:48;12.70;99.90
20498;DHT22;10407;53.238;10.448;2023-05-29T02:36:16;12.60;99.90
20498;DHT22;10407;53.238;10.448;2023-05-29T02:38:44;12.40;99.90
20498;DHT22;10407;53.238;10.448;2023-05-29T02:41:11;12.50;99.90
20498;DHT22;10407;53.238;10.448;2023-05-29T02:43:39;12.20;99.90
20498;DHT22;10407;53.238;10.448;2023-05-29T02:46:06;12.30;99.90
20498;DHT22;10407;53.238;10.448;2023-05-29T02:48:34;12.30;99.90
20498;DHT22;10407;53.238;10.448;2023-05-29T02:51:01;12.40;99.90
20498;DHT22;10407;53.238;10.448;2023-05-29T02:53:29;12.50;99.90
20498;DHT22;10407;53.238;10.448;2023-05-29T02:55:57;12.50;99.90
20498;DHT22;10407;53.238;10.448;2023-05-29T02:58:24;12.40;99.90
20498;DHT22;10407;53.238;10.448;2023-05-29T03:00:51;12.40;99.90
20498;DHT22;10407;53.238;10.448;2023-05-29T03:03:19;12.40;99.90
20498;DHT22;10407;53.238;10.448;2023-05-29T03:05:47;12.20;99.90
20498;DHT22;10407;53.238;10.448;2023-05-29T03:08:14;12.30;99.90
20498;DHT22;10407;53.238;10.448;2023-05-29T03:10:42;12.50;99.90
20498;DHT22;10407;53.238;10.448;2023-05-29T03:13:10;12.40;99.90
20498;DHT22;10407;53.238;10.448;2023-05-29T03:15:38;12.60;99.90
20498;DHT22;10407;53.238;10.448;2023-05-29T03:18:05;12.60;99.90
20498;DHT22;10407;53.238;10.448;2023-05-29T03:20:33;12.70;99.90
20498;DHT22;10407;53.238;10.448;2023-05-29T03:23:01;12.50;99.90
20498;DHT22;10407;53.238;10.448;2023-05-29T03:25:29;12.50;99.90
20498;DHT22;10407;53.238;10.448;2023-05-29T03:27:57;12.70;99.90
20498;DHT22;10407;53.238;10.448;2023-05-29T03:30:25;12.80;99.90
20498;DHT22;10407;53.238;10.448;2023-05-29T03:32:52;12.90;99.90
20498;DHT22;10407;53.238;10.448;2023-05-29T03:35:20;13.00;99.90
20498;DHT22;10407;53.238;10.448;2023-05-29T03:37:48;13.00;99.90
20498;DHT22;10407;53.238;10.448;2023-05-29T03:40:15;13.00;99.90
20498;DHT22;10407;53.238;10.448;2023-05-29T03:42:43;12.90;99.90
20498;DHT22;10407;53.238;10.448;2023-05-29T03:45:10;12.80;99.90
20498;DHT22;10407;53.238;10.448;2023-05-29T03:47:38;13.10;99.90
20498;DHT22;10407;53.238;10.448;2023-05-29T03:50:06;14.10;93.60
20498;DHT22;10407;53.238;10.448;2023-05-29T03:52:34;14.40;91.50
20498;DHT22;10407;53.238;10.448;2023-05-29T03:55:02;14.70;89.30
20498;DHT22;10407;53.238;10.448;2023-05-29T03:57:30;15.60;81.90
20498;DHT22;10407;53.238;10.448;2023-05-29T03:59:57;16.60;72.60
20498;DHT22;10407;53.238;10.448;2023-05-29T04:02:25;17.30;64.40
20498;DHT22;10407;53.238;10.448;2023-05-29T04:04:52;17.30;59.40
20498;DHT22;10407;53.238;10.448;2023-05-29T04:07:21;17.60;58.30
20498;DHT22;10407;53.238;10.448;2023-05-29T04:09:49;18.20;54.50
20498;DHT22;10407;53.238;10.448;2023-05-29T04:12:16;18.50;52.50
20498;DHT22;10407;53.238;10.448;2023-05-29T04:14:44;19.10;49.00
20498;DHT22;10407;53.238;10.448;2023-05-29T04:17:11;19.30;44.40
20498;DHT22;10407;53.238;10.448;2023-05-29T04:19:39;19.30;43.60
20498;DHT22;10407;53.238;10.448;2023-05-29T04:22:07;18.60;42.00
20498;DHT22;10407;53.238;10.448;2023-05-29T04:24:34;18.80;43.60
20498;DHT22;10407;53.238;10.448;2023-05-29T04:27:02;18.40;44.30
20498;DHT22;10407;53.238;10.448;2023-05-29T04:29:31;18.80;43.70
20498;DHT22;10407;53.238;10.448;2023-05-29T04:32:00;20.10;39.60
20498;DHT22;10407;53.238;10.448;2023-05-29T04:34:29;20.80;34.80
20498;DHT22;10407;53.238;10.448;2023-05-29T04:36:58;21.00;31.40
20498;DHT22;10407;53.238;10.448;2023-05-29T04:39:25;21.70;28.70
20498;DHT22;10407;53.238;10.448;2023-05-29T04:41:53;22.30;26.10
20498;DHT22;10407;53.238;10.448;2023-05-29T04:44:21;22.30;23.70
20498;DHT22;10407;53.238;10.448;2023-05-29T04:46:49;22.50;22.30
20498;DHT22;10407;53.238;10.448;2023-05-29T04:49:18;22.60;21.20
20498;DHT22;10407;53.238;10.448;2023-05-29T04:51:46;22.60;20.60
20498;DHT22;10407;53.238;10.448;2023-05-29T04:54:14;22.60;19.20
20498;DHT22;10407;53.238;10.448;2023-05-29T04:56:43;22.40;19.00
20498;DHT22;10407;53.238;10.448;2023-05-29T04:59:10;20.30;19.80
20498;DHT22;10407;53.238;10.448;2023-05-29T05:01:38;19.90;24.10
20498;DHT22;10407;53.238;10.448;2023-05-29T05:04:05;20.50;23.20
20498;DHT22;10407;53.238;10.448;2023-05-29T05:06:33;20.10;23.20
20498;DHT22;10407;53.238;10.448;2023-05-29T05:09:00;20.40;23.00
20498;DHT22;10407;53.238;10.448;2023-05-29T05:11:28;21.80;20.70
20498;DHT22;10407;53.238;10.448;2023-05-29T05:13:56;22.80;19.20
20498;DHT22;10407;53.238;10.448;2023-05-29T05:16:23;21.70;18.70
20498;DHT22;10407;53.238;10.448;2023-05-29T05:18:51;21.70;20.50
20498;DHT22;10407;53.238;10.448;2023-05-29T05:21:18;22.40;18.20
20498;DHT22;10407;53.238;10.448;2023-05-29T05:23:46;22.50;17.80
20498;DHT22;10407;53.238;10.448;2023-05-29T05:26:14;22.90;16.30
20498;DHT22;10407;53.238;10.448;2023-05-29T05:28:41;24.10;15.70
20498;DHT22;10407;53.238;10.448;2023-05-29T05:31:09;24.10;14.60
20498;DHT22;10407;53.238;10.448;2023-05-29T05:33:37;25.10;13.00
20498;DHT22;10407;53.238;10.448;2023-05-29T05:36:05;25.20;11.70
20498;DHT22;10407;53.238;10.448;2023-05-29T05:38:33;25.50;11.20
20498;DHT22;10407;53.238;10.448;2023-05-29T05:41:00;24.90;10.50
20498;DHT22;10407;53.238;10.448;2023-05-29T05:43:28;24.60;9.80
20498;DHT22;10407;53.238;10.448;2023-05-29T05:45:56;25.10;10.10
20498;DHT22;10407;53.238;10.448;2023-05-29T05:48:23;25.00;8.90
20498;DHT22;10407;53.238;10.448;2023-05-29T05:50:51;23.80;8.90
20498;DHT22;10407;53.238;10.448;2023-05-29T05:53:18;24.20;10.20
20498;DHT22;10407;53.238;10.448;2023-05-29T05:55:47;24.70;10.60
20498;DHT22;10407;53.238;10.448;2023-05-29T05:58:15;24.10;9.60
20498;DHT22;10407;53.238;10.448;2023-05-29T06:00:42;23.30;11.70
20498;DHT22;10407;53.238;10.448;2023-05-29T06:03:10;22.30;12.90
20498;DHT22;10407;53.238;10.448;2023-05-29T06:05:39;22.10;12.80
20498;DHT22;10407;53.238;10.448;2023-05-29T06:08:08;22.20;13.70
20498;DHT22;10407;53.238;10.448;2023-05-29T06:10:35;23.50;12.40
20498;DHT22;10407;53.238;10.448;2023-05-29T06:13:03;24.10;11.40
20498;DHT22;10407;53.238;10.448;2023-05-29T06:15:30;24.70;10.80
20498;DHT22;10407;53.238;10.448;2023-05-29T06:17:58;23.40;11.80
20498;DHT22;10407;53.238;10.448;2023-05-29T06:20:26;22.80;9.70
20498;DHT22;10407;53.238;10.448;2023-05-29T06:22:54;22.40;13.30
20498;DHT22;10407;53.238;10.448;2023-05-29T06:25:22;22.40;12.50
20498;DHT22;10407;53.238;10.448;2023-05-29T06:27:51;24.30;11.00
20498;DHT22;10407;53.238;10.448;2023-05-29T06:30:18;24.90;10.30
20498;DHT22;10407;53.238;10.448;2023-05-29T06:32:46;24.60;10.40
20498;DHT22;10407;53.238;10.448;2023-05-29T06:35:14;21.80;14.40
20498;DHT22;10407;53.238;10.448;2023-05-29T06:37:41;20.70;14.70
20498;DHT22;10407;53.238;10.448;2023-05-29T06:40:09;18.40;18.80
20498;DHT22;10407;53.238;10.448;2023-05-29T06:42:37;18.50;19.00
20498;DHT22;10407;53.238;10.448;2023-05-29T06:45:05;19.70;19.50
20498;DHT22;10407;53.238;10.448;2023-05-29T06:47:33;18.80;18.60
20498;DHT22;10407;53.238;10.448;2023-05-29T06:50:01;19.80;19.30
20498;DHT22;10407;53.238;10.448;2023-05-29T06:52:28;22.60;16.30
20498;DHT22;10407;53.238;10.448;2023-05-29T06:54:56;23.50;13.90
20498;DHT22;10407;53.238;10.448;2023-05-29T06:57:23;24.50;12.20
20498;DHT22;10407;53.238;10.448;2023-05-29T06:59:51;23.30;12.00
20498;DHT22;10407;53.238;10.448;2023-05-29T07:02:18;20.20;13.80
20498;DHT22;10407;53.238;10.448;2023-05-29T07:04:46;21.00;17.90
20498;DHT22;10407;53.238;10.448;2023-05-29T07:07:13;21.90;17.50
20498;DHT22;10407;53.238;10.448;2023-05-29T07:09:41;20.90;17.30
20498;DHT22;10407;53.238;10.448;2023-05-29T07:12:09;21.50;16.60
20498;DHT22;10407;53.238;10.448;2023-05-29T07:14:36;22.20;16.80
20498;DHT22;10407;53.238;10.448;2023-05-29T07:17:04;22.50;17.60
20498;DHT22;10407;53.238;10.448;2023-05-29T07:19:32;22.70;18.70
20498;DHT22;10407;53.238;10.448;2023-05-29T07:22:00;22.90;18.00
20498;DHT22;10407;53.238;10.448;2023-05-29T07:24:28;23.20;17.40
20498;DHT22;10407;53.238;10.448;2023-05-29T07:26:55;23.20;16.00
20498;DHT22;10407;53.238;10.448;2023-05-29T07:29:23;22.10;15.00
20498;DHT22;10407;53.238;10.448;2023-05-29T07:31:51;22.20;16.40
20498;DHT22;10407;53.238;10.448;2023-05-29T07:34:18;22.60;16.20
20498;DHT22;10407;53.238;10.448;2023-05-29T07:37:03;23.00;16.90
20498;DHT22;10407;53.238;10.448;2023-05-29T07:39:32;23.20;16.50
20498;DHT22;10407;53.238;10.448;2023-05-29T07:42:01;23.70;16.10
20498;DHT22;10407;53.238;10.448;2023-05-29T07:44:29;22.40;14.70
20498;DHT22;10407;53.238;10.448;2023-05-29T07:46:56;23.30;16.10
20498;DHT22;10407;53.238;10.448;2023-05-29T07:49:24;23.60;14.20
20498;DHT22;10407;53.238;10.448;2023-05-29T07:51:51;22.10;14.70
20498;DHT22;10407;53.238;10.448;2023-05-29T07:54:19;20.60;14.20
20498;DHT22;10407;53.238;10.448;2023-05-29T07:56:47;22.30;16.10
20498;DHT22;10407;53.238;10.448;2023-05-29T07:59:15;23.00;14.10
20498;DHT22;10407;53.238;10.448;2023-05-29T08:01:43;23.30;13.90
20498;DHT22;10407;53.238;10.448;2023-05-29T08:04:11;23.20;12.70
20498;DHT22;10407;53.238;10.448;2023-05-29T08:06:39;23.20;13.50
20498;DHT22;10407;53.238;10.448;2023-05-29T08:09:09;23.50;12.90
20498;DHT22;10407;53.238;10.448;2023-05-29T08:11:37;23.50;12.10
20498;DHT22;10407;53.238;10.448;2023-05-29T08:14:04;23.40;11.40
20498;DHT22;10407;53.238;10.448;2023-05-29T08:16:32;22.80;11.80
20498;DHT22;10407;53.238;10.448;2023-05-29T08:18:59;23.50;12.60
20498;DHT22;10407;53.238;10.448;2023-05-29T08:21:27;23.80;11.50
20498;DHT22;10407;53.238;10.448;2023-05-29T08:23:54;23.80;10.80
20498;DHT22;10407;53.238;10.448;2023-05-29T08:26:22;24.10;11.40
20498;DHT22;10407;53.238;10.448;2023-05-29T08:28:49;24.30;11.00
20498;DHT22;10407;53.238;10.448;2023-05-29T08:31:17;22.70;10.00
20498;DHT22;10407;53.238;10.448;2023-05-29T08:33:44;23.30;9.90
20498;DHT22;10407;53.238;10.448;2023-05-29T08:36:12;23.90;11.10
20498;DHT22;10407;53.238;10.448;2023-05-29T08:38:39;23.90;8.40
20498;DHT22;10407;53.238;10.448;2023-05-29T08:41:07;23.70;10.80
20498;DHT22;10407;53.238;10.448;2023-05-29T08:43:36;24.40;9.90
20498;DHT22;10407;53.238;10.448;2023-05-29T08:46:05;24.40;8.30
20498;DHT22;10407;53.238;10.448;2023-05-29T08:48:35;23.80;8.00
20498;DHT22;10407;53.238;10.448;2023-05-29T08:51:04;23.80;8.80
20498;DHT22;10407;53.238;10.448;2023-05-29T08:53:32;23.00;7.70
20498;DHT22;10407;53.238;10.448;2023-05-29T08:56:01;23.20;10.80
20498;DHT22;10407;53.238;10.448;2023-05-29T08:58:30;24.20;10.40
20498;DHT22;10407;53.238;10.448;2023-05-29T09:00:58;24.30;9.10
20498;DHT22;10407;53.238;10.448;2023-05-29T09:03:26;24.60;9.80
20498;DHT22;10407;53.238;10.448;2023-05-29T09:05:59;24.60;9.70
20498;DHT22;10407;53.238;10.448;2023-05-29T09:08:26;23.80;9.10
20498;DHT22;10407;53.238;10.448;2023-05-29T09:10:54;23.50;9.00
20498;DHT22;10407;53.238;10.448;2023-05-29T09:13:23;23.80;9.70
20498;DHT22;10407;53.238;10.448;2023-05-29T09:15:56;23.30;7.90
20498;DHT22;10407;53.238;10.448;2023-05-29T09:18:22;23.80;9.70
20498;DHT22;10407;53.238;10.448;2023-05-29T09:20:49;24.20;8.90
20498;DHT22;10407;53.238;10.448;2023-05-29T09:23:18;24.10;8.00
20498;DHT22;10407;53.238;10.448;2023-05-29T09:25:50;24.40;7.50
20498;DHT22;10407;53.238;10.448;2023-05-29T09:28:18;24.70;8.40
20498;DHT22;10407;53.238;10.448;2023-05-29T09:30:46;24.70;7.90
20498;DHT22;10407;53.238;10.448;2023-05-29T09:33:15;24.20;5.20
20498;DHT22;10407;53.238;10.448;2023-05-29T09:35:45;23.80;7.80
20498;DHT22;10407;53.238;10.448;2023-05-29T09:38:19;24.20;9.50
20498;DHT22;10407;53.238;10.448;2023-05-29T09:40:43;24.00;6.60
20498;DHT22;10407;53.238;10.448;2023-05-29T09:43:15;24.40;7.50
20498;DHT22;10407;53.238;10.448;2023-05-29T09:45:50;24.70;7.50
20498;DHT22;10407;53.238;10.448;2023-05-29T09:48:21;25.00;7.20
20498;DHT22;10407;53.238;10.448;2023-05-29T09:50:48;24.40;6.20
20498;DHT22;10407;53.238;10.448;2023-05-29T09:53:18;21.70;5.30
20498;DHT22;10407;53.238;10.448;2023-05-29T09:55:51;22.90;7.70
20498;DHT22;10407;53.238;10.448;2023-05-29T09:58:19;21.90;5.80
20498;DHT22;10407;53.238;10.448;2023-05-29T10:00:48;22.40;5.80
20498;DHT22;10407;53.238;10.448;2023-05-29T10:03:18;22.80;5.70
20498;DHT22;10407;53.238;10.448;2023-05-29T10:05:52;22.80;5.00
20498;DHT22;10407;53.238;10.448;2023-05-29T10:08:22;22.20;4.30
20498;DHT22;10407;53.238;10.448;2023-05-29T10:10:59;22.90;6.80
20498;DHT22;10407;53.238;10.448;2023-05-29T10:13:24;23.60;7.10
20498;DHT22;10407;53.238;10.448;2023-05-29T10:15:55;23.20;5.70
20498;DHT22;10407;53.238;10.448;2023-05-29T10:18:31;22.80;4.10
20498;DHT22;10407;53.238;10.448;2023-05-29T10:20:57;23.00;7.40
20498;DHT22;10407;53.238;10.448;2023-05-29T10:23:26;23.50;6.90
20498;DHT22;10407;53.238;10.448;2023-05-29T10:25:58;23.80;6.50
20498;DHT22;10407;53.238;10.448;2023-05-29T10:28:27;24.00;5.90
20498;DHT22;10407;53.238;10.448;2023-05-29T10:31:00;21.40;3.20
20498;DHT22;10407;53.238;10.448;2023-05-29T10:36:22;22.00;7.90
20498;DHT22;10407;53.238;10.448;2023-05-29T10:38:51;23.30;7.80
20498;DHT22;10407;53.238;10.448;2023-05-29T10:43:57;23.30;5.40
20498;DHT22;10407;53.238;10.448;2023-05-29T10:49:19;22.80;1.90
20498;DHT22;10407;53.238;10.448;2023-05-29T10:51:47;22.50;4.30
20498;DHT22;10407;53.238;10.448;2023-05-29T10:54:15;23.50;6.00
20498;DHT22;10407;53.238;10.448;2023-05-29T10:56:57;24.00;6.00
20498;DHT22;10407;53.238;10.448;2023-05-29T10:59:26;23.80;4.70
20498;DHT22;10407;53.238;10.448;2023-05-29T11:01:55;23.70;4.90
20498;DHT22;10407;53.238;10.448;2023-05-29T11:04:26;21.50;2.30
20498;DHT22;10407;53.238;10.448;2023-05-29T11:06:54;22.00;6.40
20498;DHT22;10407;53.238;10.448;2023-05-29T11:09:38;21.50;2.90
20498;DHT22;10407;53.238;10.448;2023-05-29T11:12:15;21.60;5.20
20498;DHT22;10407;53.238;10.448;2023-05-29T11:14:56;20.80;3.80
20498;DHT22;10407;53.238;10.448;2023-05-29T11:23:08;23.40;3.70
20498;DHT22;10407;53.238;10.448;2023-05-29T11:25:22;23.60;1.50
20498;DHT22;10407;53.238;10.448;2023-05-29T11:27:50;23.80;3.80
20498;DHT22;10407;53.238;10.448;2023-05-29T11:30:20;23.70;4.10
20498;DHT22;10407;53.238;10.448;2023-05-29T11:32:49;23.10;5.20
20498;DHT22;10407;53.238;10.448;2023-05-29T11:35:21;23.40;5.70
20498;DHT22;10407;53.238;10.448;2023-05-29T11:37:49;23.70;5.40
20498;DHT22;10407;53.238;10.448;2023-05-29T11:40:17;23.00;1.70
20498;DHT22;10407;53.238;10.448;2023-05-29T11:42:48;22.40;3.40
20498;DHT22;10407;53.238;10.448;2023-05-29T11:45:18;23.00;5.00
20498;DHT22;10407;53.238;10.448;2023-05-29T11:47:57;23.40;5.70
20498;DHT22;10407;53.238;10.448;2023-05-29T11:50:27;23.40;5.50
20498;DHT22;10407;53.238;10.448;2023-05-29T11:52:56;22.70;1.80
20498;DHT22;10407;53.238;10.448;2023-05-29T11:55:25;20.60;2.20
20498;DHT22;10407;53.238;10.448;2023-05-29T11:58:03;21.20;2.80
20498;DHT22;10407;53.238;10.448;2023-05-29T12:00:38;22.20;5.60
20498;DHT22;10407;53.238;10.448;2023-05-29T12:03:07;22.60;5.00
20498;DHT22;10407;53.238;10.448;2023-05-29T12:05:50;22.60;4.50
20498;DHT22;10407;53.238;10.448;2023-05-29T12:08:21;21.20;2.30
20498;DHT22;10407;53.238;10.448;2023-05-29T12:10:51;21.50;3.30
20498;DHT22;10407;53.238;10.448;2023-05-29T12:13:20;22.20;4.10
20498;DHT22;10407;53.238;10.448;2023-05-29T12:15:50;22.70;3.60
20498;DHT22;10407;53.238;10.448;2023-05-29T12:18:18;22.90;3.30
20498;DHT22;10407;53.238;10.448;2023-05-29T12:20:46;22.90;2.80
20498;DHT22;10407;53.238;10.448;2023-05-29T12:23:13;22.30;1.20
20498;DHT22;10407;53.238;10.448;2023-05-29T12:25:41;20.60;2.60
20498;DHT22;10407;53.238;10.448;2023-05-29T12:28:15;20.40;2.40
20498;DHT22;10407;53.238;10.448;2023-05-29T12:30:41;20.10;2.40
20498;DHT22;10407;53.238;10.448;2023-05-29T12:33:10;21.40;4.80
20498;DHT22;10407;53.238;10.448;2023-05-29T12:35:39;22.20;5.00
20498;DHT22;10407;53.238;10.448;2023-05-29T12:38:07;22.50;2.70
20498;DHT22;10407;53.238;10.448;2023-05-29T12:40:35;22.00;2.80
20498;DHT22;10407;53.238;10.448;2023-05-29T12:43:07;21.80;3.50
20498;DHT22;10407;53.238;10.448;2023-05-29T12:45:38;21.30;3.90
20498;DHT22;10407;53.238;10.448;2023-05-29T12:48:07;22.20;3.70
20498;DHT22;10407;53.238;10.448;2023-05-29T12:50:38;22.20;2.30
20498;DHT22;10407;53.238;10.448;2023-05-29T12:53:12;22.50;3.90
20498;DHT22;10407;53.238;10.448;2023-05-29T12:55:44;22.70;3.30
20498;DHT22;10407;53.238;10.448;2023-05-29T12:58:13;22.70;2.70
20498;DHT22;10407;53.238;10.448;2023-05-29T13:00:43;22.80;3.70
20498;DHT22;10407;53.238;10.448;2023-05-29T13:03:12;22.60;4.00
20498;DHT22;10407;53.238;10.448;2023-05-29T13:05:40;22.50;3.40
20498;DHT22;10407;53.238;10.448;2023-05-29T13:08:08;22.60;4.00
20498;DHT22;10407;53.238;10.448;2023-05-29T13:10:36;22.60;4.20
20498;DHT22;10407;53.238;10.448;2023-05-29T13:13:03;22.20;4.00
20498;DHT22;10407;53.238;10.448;2023-05-29T13:15:31;22.50;3.80
20498;DHT22;10407;53.238;10.448;2023-05-29T13:18:00;22.50;3.10
20498;DHT22;10407;53.238;10.448;2023-05-29T13:20:27;22.60;3.40
20498;DHT22;10407;53.238;10.448;2023-05-29T13:22:56;22.70;3.30
20498;DHT22;10407;53.238;10.448;2023-05-29T13:25:24;22.10;3.20
20498;DHT22;10407;53.238;10.448;2023-05-29T13:27:52;22.60;4.20
20498;DHT22;10407;53.238;10.448;2023-05-29T13:30:21;22.50;1.60
20498;DHT22;10407;53.238;10.448;2023-05-29T13:32:50;21.40;1.40
20498;DHT22;10407;53.238;10.448;2023-05-29T13:35:18;21.90;1.90
20498;DHT22;10407;53.238;10.448;2023-05-29T13:37:46;22.30;4.90
20498;DHT22;10407;53.238;10.448;2023-05-29T13:40:14;22.30;2.40
20498;DHT22;10407;53.238;10.448;2023-05-29T13:42:41;22.40;3.20
20498;DHT22;10407;53.238;10.448;2023-05-29T13:45:09;22.60;4.30
20498;DHT22;10407;53.238;10.448;2023-05-29T13:47:38;21.30;2.30
20498;DHT22;10407;53.238;10.448;2023-05-29T13:50:06;22.10;4.30
20498;DHT22;10407;53.238;10.448;2023-05-29T13:52:34;22.30;3.00
20498;DHT22;10407;53.238;10.448;2023-05-29T13:55:02;22.30;3.60
20498;DHT22;10407;53.238;10.448;2023-05-29T13:57:31;21.70;2.30
20498;DHT22;10407;53.238;10.448;2023-05-29T13:59:59;22.30;4.00
20498;DHT22;10407;53.238;10.448;2023-05-29T14:02:27;22.10;3.10
20498;DHT22;10407;53.238;10.448;2023-05-29T14:04:55;22.10;1.70
20498;DHT22;10407;53.238;10.448;2023-05-29T14:07:23;22.00;1.00
20498;DHT22;10407;53.238;10.448;2023-05-29T14:09:51;22.30;2.10
20498;DHT22;10407;53.238;10.448;2023-05-29T14:12:19;22.30;1.00
20498;DHT22;10407;53.238;10.448;2023-05-29T14:14:46;22.30;1.00
20498;DHT22;10407;53.238;10.448;2023-05-29T14:17:14;22.20;1.00
20498;DHT22;10407;53.238;10.448;2023-05-29T14:19:42;21.10;1.00
20498;DHT22;10407;53.238;10.448;2023-05-29T14:22:11;21.10;1.00
20498;DHT22;10407;53.238;10.448;2023-05-29T14:24:39;21.70;2.60
20498;DHT22;10407;53.238;10.448;2023-05-29T14:27:07;22.10;2.50
20498;DHT22;10407;53.238;10.448;2023-05-29T14:29:34;22.30;1.40
20498;DHT22;10407;53.238;10.448;2023-05-29T14:32:02;22.20;1.30
20498;DHT22;10407;53.238;10.448;2023-05-29T14:34:30;22.00;1.00
20498;DHT22;10407;53.238;10.448;2023-05-29T14:36:57;22.30;1.90
20498;DHT22;10407;53.238;10.448;2023-05-29T14:39:25;22.40;2.20
20498;DHT22;10407;53.238;10.448;2023-05-29T14:41:52;22.40;1.90
20498;DHT22;10407;53.238;10.448;2023-05-29T14:44:19;21.90;1.20
20498;DHT22;10407;53.238;10.448;2023-05-29T14:46:47;21.70;1.00
20498;DHT22;10407;53.238;10.448;2023-05-29T14:49:15;22.00;2.20
20498;DHT22;10407;53.238;10.448;2023-05-29T14:51:42;22.10;1.70
20498;DHT22;10407;53.238;10.448;2023-05-29T14:54:11;22.10;1.20
20498;DHT22;10407;53.238;10.448;2023-05-29T14:56:38;22.00;1.00
20498;DHT22;10407;53.238;10.448;2023-05-29T14:59:06;22.10;1.00
20498;DHT22;10407;53.238;10.448;2023-05-29T15:01:33;21.50;1.00
20498;DHT22;10407;53.238;10.448;2023-05-29T15:04:01;21.90;1.10
20498;DHT22;10407;53.238;10.448;2023-05-29T15:06:28;22.10;1.10
20498;DHT22;10407;53.238;10.448;2023-05-29T15:08:56;22.40;1.00
20498;DHT22;10407;53.238;10.448;2023-05-29T15:11:24;22.30;1.00
20498;DHT22;10407;53.238;10.448;2023-05-29T15:13:52;21.60;1.00
20498;DHT22;10407;53.238;10.448;2023-05-29T15:16:20;21.30;1.00
20498;DHT22;10407;53.238;10.448;2023-05-29T15:18:47;21.70;1.00
20498;DHT22;10407;53.238;10.448;2023-05-29T15:21:15;21.30;1.00
20498;DHT22;10407;53.238;10.448;2023-05-29T15:23:42;21.90;1.00
20498;DHT22;10407;53.238;10.448;2023-05-29T15:26:10;21.80;1.00
20498;DHT22;10407;53.238;10.448;2023-05-29T15:28:37;21.90;1.00
20498;DHT22;10407;53.238;10.448;2023-05-29T15:31:05;21.60;1.00
20498;DHT22;10407;53.238;10.448;2023-05-29T15:33:33;21.80;1.10
20498;DHT22;10407;53.238;10.448;2023-05-29T15:36:00;21.80;1.50
20498;DHT22;10407;53.238;10.448;2023-05-29T15:38:28;21.90;1.90
20498;DHT22;10407;53.238;10.448;2023-05-29T15:40:57;21.80;1.90
20498;DHT22;10407;53.238;10.448;2023-05-29T15:43:24;21.20;1.00
20498;DHT22;10407;53.238;10.448;2023-05-29T15:45:52;21.40;1.50
20498;DHT22;10407;53.238;10.448;2023-05-29T15:48:19;21.40;2.20
20498;DHT22;10407;53.238;10.448;2023-05-29T15:50:47;21.30;2.40